TimeAKST,TemperatureF,Dew PointF,Humidity,Sea Level PressureIn,VisibilityMPH,Wind Direction,Wind SpeedMPH,Gust SpeedMPH,PrecipitationIn,Events,Conditions,WindDirDegrees,DateUTC
12:53 AM,3.9,1.0,88,29.60,10.0,Calm,Calm,-,N/A,,Scattered Clouds,0,2013-01-03 09:53:00
1:53 AM,7.0,3.0,84,29.59,10.0,NE,5.8,-,N/A,,Scattered Clouds,40,2013-01-03 10:53:00
3:53 AM,8.1,3.9,83,29.60,10.0,NE,3.5,-,N/A,,Scattered Clouds,50,2013-01-03 12:53:00
4:53 AM,10.0,6.1,84,29.60,10.0,Calm,Calm,-,N/A,,Scattered Clouds,0,2013-01-03 13:53:00
5:53 AM,8.1,3.9,83,29.60,10.0,Calm,Calm,-,N/A,,Scattered Clouds,0,2013-01-03 14:53:00
6:53 AM,8.1,5.0,87,29.62,10.0,Variable,3.5,-,N/A,,Scattered Clouds,0,2013-01-03 15:53:00
7:53 AM,10.9,7.0,84,29.62,10.0,North,3.5,-,N/A,,Mostly Cloudy,10,2013-01-03 16:53:00
8:53 AM,12.0,8.1,84,29.63,10.0,NNE,3.5,-,N/A,,Mostly Cloudy,30,2013-01-03 17:53:00
9:53 AM,9.0,5.0,84,29.65,10.0,NE,4.6,-,N/A,,Mostly Cloudy,40,2013-01-03 18:53:00
10:53 AM,9.0,5.0,84,29.66,10.0,NNE,3.5,-,N/A,,Mostly Cloudy,30,2013-01-03 19:53:00
11:53 AM,9.0,5.0,84,29.67,10.0,NE,4.6,-,N/A,,Mostly Cloudy,40,2013-01-03 20:53:00
12:53 PM,10.0,6.1,84,29.68,10.0,NE,3.5,-,N/A,,Mostly Cloudy,50,2013-01-03 21:53:00
1:53 PM,12.0,8.1,84,29.69,10.0,South,4.6,-,N/A,,Mostly Cloudy,170,2013-01-03 22:53:00
2:53 PM,7.0,3.9,87,29.68,10.0,Calm,Calm,-,N/A,,Mostly Cloudy,0,2013-01-03 23:53:00
3:53 PM,3.0,-0.9,84,29.68,10.0,Calm,Calm,-,N/A,,Mostly Cloudy,0,2013-01-04 00:53:00
4:53 PM,1.9,-2.0,83,29.69,10.0,Calm,Calm,-,N/A,,Mostly Cloudy,0,2013-01-04 01:53:00
5:53 PM,1.9,-2.0,83,29.68,10.0,NE,5.8,-,N/A,,Mostly Cloudy,40,2013-01-04 02:53:00
6:53 PM,3.9,1.0,88,29.67,10.0,NE,3.5,-,N/A,,Mostly Cloudy,50,2013-01-04 03:53:00
7:53 PM,5.0,1.9,87,29.67,10.0,Calm,Calm,-,N/A,,Mostly Cloudy,0,2013-01-04 04:53:00
8:53 PM,6.1,1.9,83,29.66,10.0,North,5.8,-,N/A,,Mostly Cloudy,10,2013-01-04 05:53:00
9:53 PM,9.0,5.0,84,29.66,10.0,Calm,Calm,-,N/A,,Mostly Cloudy,0,2013-01-04 06:53:00
10:53 PM,8.1,3.9,83,29.67,10.0,Calm,Calm,-,N/A,,Mostly Cloudy,0,2013-01-04 07:53:00
11:53 PM,9.0,5.0,84,29.68,10.0,Calm,Calm,-,N/A,,Mostly Cloudy,0,2013-01-04 08:53:00